Time;durP1;ratioP1;P1;durP2;ratioP2;P2;SDS_P1;SDS_P2;PMS_P1;PMS_P2;Temp;Humidity;BMP_temperature;BMP_pressure;BME280_temperature;BME280_humidity;BME280_pressure;Samples;Min_cycle;Max_cycle;Signal;HPM_P1;HPM_P2
2022/04/19 00:00:41;;;;;;;;;;;11.00;67.90;;;;;;5092182;28;20316;-68
2022/04/19 00:03:09;;;;;;;;;;;10.90;68.40;;;;;;5092703;28;19928;-68
2022/04/19 00:05:36;;;;;;;;;;;10.90;69.10;;;;;;5077962;28;20370;-69
2022/04/19 00:08:02;;;;;;;;;;;10.90;68.90;;;;;;5103099;28;19934;-68
2022/04/19 00:10:29;;;;;;;;;;;10.80;68.60;;;;;;5088704;28;19928;-68
2022/04/19 00:12:56;;;;;;;;;;;10.80;69.50;;;;;;5078439;28;19993;-68
2022/04/19 00:15:23;;;;;;;;;;;10.80;70.30;;;;;;5089115;28;20018;-68
2022/04/19 00:17:51;;;;;;;;;;;10.80;70.60;;;;;;5084655;28;19924;-69
2022/04/19 00:20:18;;;;;;;;;;;10.80;69.80;;;;;;5086582;28;20555;-68
2022/04/19 00:22:44;;;;;;;;;;;10.90;69.50;;;;;;5092101;28;19928;-68
2022/04/19 00:25:11;;;;;;;;;;;11.00;69.70;;;;;;5091415;28;19924;-68
2022/04/19 00:27:37;;;;;;;;;;;11.00;68.90;;;;;;5098976;28;19924;-68
2022/04/19 00:30:04;;;;;;;;;;;10.90;68.20;;;;;;5090163;28;19993;-68
2022/04/19 00:32:30;;;;;;;;;;;10.90;68.00;;;;;;5103589;28;19923;-69
2022/04/19 00:34:59;;;;;;;;;;;10.90;67.80;;;;;;5074462;28;19946;-68
2022/04/19 00:37:26;;;;;;;;;;;10.80;69.00;;;;;;5083887;28;19928;-69
2022/04/19 00:39:52;;;;;;;;;;;10.70;70.40;;;;;;5090939;28;19931;-69
2022/04/19 00:42:19;;;;;;;;;;;10.60;71.00;;;;;;5090847;28;19924;-69
2022/04/19 00:44:45;;;;;;;;;;;10.60;71.90;;;;;;5096114;28;19935;-69
2022/04/19 00:47:15;;;;;;;;;;;10.50;73.10;;;;;;5097157;28;19928;-68
2022/04/19 00:49:43;;;;;;;;;;;10.50;74.20;;;;;;5081238;28;19928;-69
2022/04/19 00:52:11;;;;;;;;;;;10.40;75.90;;;;;;5084296;28;19924;-69
2022/04/19 00:54:38;;;;;;;;;;;10.40;77.00;;;;;;5090853;28;20435;-68
2022/04/19 00:57:05;;;;;;;;;;;10.30;78.40;;;;;;5085244;28;19925;-69
2022/04/19 00:59:32;;;;;;;;;;;10.30;77.40;;;;;;5089156;28;19933;-69
2022/04/19 01:01:59;;;;;;;;;;;10.20;79.40;;;;;;5090009;28;19924;-69
2022/04/19 01:04:25;;;;;;;;;;;10.20;78.80;;;;;;5096033;28;19960;-69
2022/04/19 01:06:52;;;;;;;;;;;10.20;80.90;;;;;;5090025;28;19931;-69
2022/04/19 01:09:21;;;;;;;;;;;10.20;84.30;;;;;;5085074;28;19979;-69
2022/04/19 01:14:31;;;;;;;;;;;10.20;87.50;;;;;;5090949;28;19981;-68
2022/04/19 01:16:58;;;;;;;;;;;10.10;90.00;;;;;;5089081;28;19928;-69
2022/04/19 01:19:25;;;;;;;;;;;10.10;88.50;;;;;;5080001;28;20535;-68
2022/04/19 01:21:54;;;;;;;;;;;10.00;89.60;;;;;;5074008;28;19928;-69
2022/04/19 01:24:21;;;;;;;;;;;9.90;94.60;;;;;;5090534;28;19924;-68
2022/04/19 01:26:48;;;;;;;;;;;9.90;94.70;;;;;;5089073;28;19924;-69
2022/04/19 01:29:15;;;;;;;;;;;10.00;93.40;;;;;;5081374;28;20014;-69
2022/04/19 01:31:42;;;;;;;;;;;10.00;91.70;;;;;;5083723;28;19973;-69
2022/04/19 01:34:09;;;;;;;;;;;10.00;91.00;;;;;;5082275;28;19978;-69
2022/04/19 01:36:36;;;;;;;;;;;10.00;92.30;;;;;;5086622;28;19978;-69
2022/04/19 01:39:05;;;;;;;;;;;10.00;92.30;;;;;;5101906;28;20389;-69
2022/04/19 01:41:31;;;;;;;;;;;10.00;91.30;;;;;;5087140;28;19943;-69
2022/04/19 01:43:59;;;;;;;;;;;9.90;93.20;;;;;;5090405;28;20371;-69
2022/04/19 01:46:26;;;;;;;;;;;9.80;93.80;;;;;;5092887;28;19924;-69
2022/04/19 01:48:54;;;;;;;;;;;9.70;99.90;;;;;;5083498;28;19967;-69
2022/04/19 01:51:21;;;;;;;;;;;9.60;99.90;;;;;;5082440;28;20377;-68
2022/04/19 01:53:48;;;;;;;;;;;9.60;99.90;;;;;;5098368;28;20458;-69
2022/04/19 01:56:16;;;;;;;;;;;9.60;99.90;;;;;;5083446;28;20378;-69
2022/04/19 01:58:42;;;;;;;;;;;9.50;99.90;;;;;;5090889;28;19935;-70
2022/04/19 02:01:09;;;;;;;;;;;9.50;99.90;;;;;;5102232;28;19931;-67
2022/04/19 02:03:36;;;;;;;;;;;9.40;99.90;;;;;;5098650;28;19924;-67
2022/04/19 02:06:02;;;;;;;;;;;9.30;99.90;;;;;;5073625;28;19929;-68
2022/04/19 02:08:29;;;;;;;;;;;9.30;99.90;;;;;;5083710;28;19924;-69
2022/04/19 02:10:56;;;;;;;;;;;9.20;99.90;;;;;;5077094;28;19931;-68
2022/04/19 02:13:24;;;;;;;;;;;9.10;99.90;;;;;;5079638;28;19945;-68
2022/04/19 02:15:51;;;;;;;;;;;9.10;99.90;;;;;;5084529;28;19924;-69
2022/04/19 02:18:18;;;;;;;;;;;9.10;99.90;;;;;;5092396;28;19978;-68
2022/04/19 02:20:45;;;;;;;;;;;9.10;99.90;;;;;;5090802;28;19924;-68
2022/04/19 02:23:12;;;;;;;;;;;9.00;99.90;;;;;;5093134;28;20352;-69
2022/04/19 02:25:39;;;;;;;;;;;9.00;99.90;;;;;;5098279;28;19928;-70
2022/04/19 02:28:06;;;;;;;;;;;8.90;99.90;;;;;;5094120;28;19933;-69
2022/04/19 02:30:34;;;;;;;;;;;8.90;99.90;;;;;;5089120;28;19967;-69
2022/04/19 02:33:02;;;;;;;;;;;8.80;99.90;;;;;;5088773;28;19978;-68
2022/04/19 02:35:31;;;;;;;;;;;8.80;99.90;;;;;;5085769;28;19932;-69
2022/04/19 02:37:58;;;;;;;;;;;8.70;99.90;;;;;;5089783;28;19927;-69
2022/04/19 02:40:26;;;;;;;;;;;8.60;99.90;;;;;;5099525;28;20462;-69
2022/04/19 02:42:54;;;;;;;;;;;8.60;99.90;;;;;;5105934;28;20612;-68
2022/04/19 02:45:21;;;;;;;;;;;8.60;99.90;;;;;;5078844;28;20021;-69
2022/04/19 02:47:51;;;;;;;;;;;8.60;99.90;;;;;;5087662;28;19924;-69
2022/04/19 02:50:18;;;;;;;;;;;8.60;99.90;;;;;;5085694;28;20390;-69
2022/04/19 02:52:44;;;;;;;;;;;8.50;99.90;;;;;;5102730;28;19953;-68
2022/04/19 02:55:11;;;;;;;;;;;8.50;99.90;;;;;;5089312;28;20385;-69
2022/04/19 02:57:38;;;;;;;;;;;8.60;99.90;;;;;;5089423;28;19988;-68
2022/04/19 03:00:05;;;;;;;;;;;8.50;99.90;;;;;;5088824;28;20455;-69
2022/04/19 03:02:31;;;;;;;;;;;8.50;99.90;;;;;;5102673;28;19981;-69
2022/04/19 03:04:59;;;;;;;;;;;8.50;99.90;;;;;;5088065;28;19984;-69
2022/04/19 03:07:26;;;;;;;;;;;8.50;99.90;;;;;;5088790;28;19928;-68
2022/04/19 03:09:52;;;;;;;;;;;8.60;99.90;;;;;;5076960;28;19924;-68
2022/04/19 03:12:19;;;;;;;;;;;8.60;99.90;;;;;;5116643;22;19972;-73
2022/04/19 03:14:45;;;;;;;;;;;8.60;99.90;;;;;;5106822;28;19956;-73
2022/04/19 03:17:12;;;;;;;;;;;8.60;99.90;;;;;;5106105;28;19928;-74
2022/04/19 03:19:38;;;;;;;;;;;8.50;99.90;;;;;;5105762;28;20596;-72
2022/04/19 03:22:06;;;;;;;;;;;8.40;99.90;;;;;;5100384;28;19932;-74
2022/04/19 03:30:07;;;;;;;;;;;8.30;99.90;;;;;;5075476;28;19931;-74
2022/04/19 03:32:33;;;;;;;;;;;8.30;99.90;;;;;;5086871;28;19936;-73
2022/04/19 03:35:00;;;;;;;;;;;8.20;99.90;;;;;;5091011;28;20000;-74
2022/04/19 03:37:30;;;;;;;;;;;8.10;99.90;;;;;;5091932;28;19939;-72
2022/04/19 03:39:56;;;;;;;;;;;8.10;99.90;;;;;;5091926;28;19967;-73
2022/04/19 03:42:24;;;;;;;;;;;8.10;99.90;;;;;;5098203;28;19939;-74
2022/04/19 03:44:51;;;;;;;;;;;8.00;99.90;;;;;;5089964;28;20678;-74
2022/04/19 03:47:17;;;;;;;;;;;8.00;99.90;;;;;;5089759;28;19961;-74
2022/04/19 03:49:44;;;;;;;;;;;8.00;99.90;;;;;;5088461;28;19928;-73
2022/04/19 03:52:11;;;;;;;;;;;8.00;99.90;;;;;;5095533;28;19931;-74
2022/04/19 03:54:39;;;;;;;;;;;7.90;99.90;;;;;;5078961;28;19936;-72
2022/04/19 03:57:07;;;;;;;;;;;7.90;99.90;;;;;;5092242;28;20865;-74
2022/04/19 03:59:34;;;;;;;;;;;7.80;99.90;;;;;;5094486;28;20060;-74
2022/04/19 04:02:00;;;;;;;;;;;7.80;99.90;;;;;;5091009;28;19924;-74
2022/04/19 04:04:30;;;;;;;;;;;7.70;99.90;;;;;;5093126;28;19924;-75
2022/04/19 04:06:57;;;;;;;;;;;7.70;99.90;;;;;;5087932;28;19924;-73
2022/04/19 04:09:23;;;;;;;;;;;7.60;99.90;;;;;;5078400;28;20001;-73
2022/04/19 04:11:51;;;;;;;;;;;7.60;99.90;;;;;;5091119;28;19924;-73
2022/04/19 04:14:18;;;;;;;;;;;7.60;99.90;;;;;;5088974;28;19928;-74
2022/04/19 04:16:44;;;;;;;;;;;7.50;99.90;;;;;;5102985;28;19980;-74
2022/04/19 04:19:11;;;;;;;;;;;7.50;99.90;;;;;;5088078;28;20003;-73
2022/04/19 04:21:37;;;;;;;;;;;7.50;99.90;;;;;;5090590;28;19978;-74
2022/04/19 04:24:04;;;;;;;;;;;7.50;99.90;;;;;;5109343;28;19924;-74
2022/04/19 04:26:31;;;;;;;;;;;7.40;99.90;;;;;;5106863;28;19932;-73
2022/04/19 04:28:59;;;;;;;;;;;7.40;99.90;;;;;;5092987;28;19928;-74
2022/04/19 04:31:25;;;;;;;;;;;7.40;99.90;;;;;;5076910;28;20065;-74
2022/04/19 04:33:52;;;;;;;;;;;7.40;99.90;;;;;;5096676;28;19932;-74
2022/04/19 04:36:19;;;;;;;;;;;7.40;99.90;;;;;;5088318;28;20517;-74
2022/04/19 04:38:45;;;;;;;;;;;7.50;99.90;;;;;;5088738;28;19928;-73
2022/04/19 04:41:12;;;;;;;;;;;7.50;99.90;;;;;;5087224;28;19928;-74
2022/04/19 04:43:39;;;;;;;;;;;7.50;99.90;;;;;;5087539;28;19931;-73
2022/04/19 04:51:36;;;;;;;;;;;7.50;99.90;;;;;;5076559;28;20081;-74
2022/04/19 04:54:02;;;;;;;;;;;7.50;99.90;;;;;;5088778;28;20613;-74
2022/04/19 04:56:29;;;;;;;;;;;7.40;99.90;;;;;;5088777;28;20416;-73
2022/04/19 04:58:56;;;;;;;;;;;7.40;99.90;;;;;;5091156;28;20359;-74
2022/04/19 05:01:24;;;;;;;;;;;7.50;99.90;;;;;;5095745;28;20022;-73
2022/04/19 05:03:50;;;;;;;;;;;7.50;99.90;;;;;;5079265;28;19933;-74
2022/04/19 05:06:17;;;;;;;;;;;7.50;99.90;;;;;;5078217;28;19985;-74
2022/04/19 05:08:44;;;;;;;;;;;7.50;99.90;;;;;;5088506;28;19996;-74
2022/04/19 05:11:10;;;;;;;;;;;7.60;99.90;;;;;;5087847;28;19996;-74
2022/04/19 05:13:37;;;;;;;;;;;7.60;99.90;;;;;;5102299;28;19982;-74
2022/04/19 05:16:03;;;;;;;;;;;7.60;99.90;;;;;;5086096;28;19965;-74
2022/04/19 05:18:32;;;;;;;;;;;7.60;99.90;;;;;;5079380;28;19984;-74
2022/04/19 05:20:59;;;;;;;;;;;7.60;99.90;;;;;;5070841;28;19947;-73
2022/04/19 05:23:25;;;;;;;;;;;7.60;99.90;;;;;;5084489;28;19951;-74
2022/04/19 05:25:52;;;;;;;;;;;7.60;99.90;;;;;;5074020;28;19977;-73
2022/04/19 05:28:18;;;;;;;;;;;7.50;99.90;;;;;;5089114;28;20397;-72
2022/04/19 05:30:45;;;;;;;;;;;7.50;99.90;;;;;;5078365;28;19936;-72
2022/04/19 05:33:12;;;;;;;;;;;7.50;99.90;;;;;;5082281;28;20381;-74
2022/04/19 05:35:39;;;;;;;;;;;7.50;99.90;;;;;;5081680;28;19940;-74
2022/04/19 05:38:06;;;;;;;;;;;7.40;99.90;;;;;;5085179;28;19959;-72
2022/04/19 05:40:33;;;;;;;;;;;7.40;99.90;;;;;;5068241;28;20005;-73
2022/04/19 05:42:59;;;;;;;;;;;7.40;99.90;;;;;;5069441;28;19925;-73
2022/04/19 05:45:26;;;;;;;;;;;7.50;99.90;;;;;;5072572;28;19940;-75
2022/04/19 05:47:52;;;;;;;;;;;7.50;99.90;;;;;;5100435;28;19987;-74
2022/04/19 05:50:19;;;;;;;;;;;7.60;99.90;;;;;;5082544;28;19924;-73
2022/04/19 05:52:46;;;;;;;;;;;7.70;99.90;;;;;;5067315;28;19924;-73
2022/04/19 05:55:13;;;;;;;;;;;7.70;99.90;;;;;;5079404;28;19924;-74
2022/04/19 05:57:40;;;;;;;;;;;7.70;99.90;;;;;;5069118;28;20011;-74
2022/04/19 06:00:07;;;;;;;;;;;7.80;99.90;;;;;;5067669;28;19935;-74
2022/04/19 06:05:17;;;;;;;;;;;7.80;99.90;;;;;;5067979;28;20058;-74
2022/04/19 06:07:44;;;;;;;;;;;7.90;99.90;;;;;;5078879;28;19933;-74
2022/04/19 06:10:14;;;;;;;;;;;7.90;99.90;;;;;;5066894;28;19924;-74
2022/04/19 06:12:40;;;;;;;;;;;8.00;99.90;;;;;;5081309;28;19951;-74
2022/04/19 06:15:07;;;;;;;;;;;8.00;99.90;;;;;;5073663;28;19955;-74
2022/04/19 06:17:35;;;;;;;;;;;8.10;99.90;;;;;;5087979;28;19977;-74
2022/04/19 06:20:02;;;;;;;;;;;8.10;99.90;;;;;;5083230;28;19928;-72
2022/04/19 06:22:29;;;;;;;;;;;8.20;99.90;;;;;;5068258;28;19932;-72
2022/04/19 06:24:56;;;;;;;;;;;8.30;99.90;;;;;;5066217;28;20081;-72
2022/04/19 06:27:24;;;;;;;;;;;8.40;99.90;;;;;;5076662;28;20073;-73
2022/04/19 06:29:51;;;;;;;;;;;8.50;99.90;;;;;;5070048;28;19965;-73
2022/04/19 06:32:18;;;;;;;;;;;8.60;99.90;;;;;;5068631;28;20361;-74
2022/04/19 06:34:44;;;;;;;;;;;8.80;99.90;;;;;;5076166;28;19931;-65
2022/04/19 06:37:11;;;;;;;;;;;8.90;99.90;;;;;;5083845;28;19924;-62
2022/04/19 06:39:38;;;;;;;;;;;9.10;99.90;;;;;;5065048;28;19928;-64
2022/04/19 06:42:04;;;;;;;;;;;9.20;99.90;;;;;;5065192;28;19936;-63
2022/04/19 06:44:32;;;;;;;;;;;9.40;99.90;;;;;;5077412;28;20357;-64
2022/04/19 06:46:59;;;;;;;;;;;9.60;99.90;;;;;;5085229;28;19936;-63
2022/04/19 06:49:25;;;;;;;;;;;9.80;99.90;;;;;;5073542;28;20358;-61
2022/04/19 06:51:52;;;;;;;;;;;9.90;99.90;;;;;;5083331;28;19982;-63
2022/04/19 06:54:18;;;;;;;;;;;10.00;99.90;;;;;;5069596;28;20014;-62
2022/04/19 06:56:45;;;;;;;;;;;10.10;99.90;;;;;;5067332;28;19925;-62
2022/04/19 06:59:12;;;;;;;;;;;10.20;99.90;;;;;;5081624;28;19924;-63
2022/04/19 07:01:40;;;;;;;;;;;10.30;99.90;;;;;;5081101;28;19979;-62
2022/04/19 07:04:07;;;;;;;;;;;10.40;99.90;;;;;;5087254;28;19931;-62
2022/04/19 07:06:34;;;;;;;;;;;10.50;99.90;;;;;;5080914;28;19932;-72
2022/04/19 07:09:01;;;;;;;;;;;10.60;99.90;;;;;;5097722;28;19935;-73
2022/04/19 07:11:27;;;;;;;;;;;10.70;99.90;;;;;;5112294;28;19924;-72
2022/04/19 07:13:54;;;;;;;;;;;10.80;99.90;;;;;;5083493;28;19969;-72
2022/04/19 07:16:21;;;;;;;;;;;10.90;99.90;;;;;;5078349;28;19970;-71
2022/04/19 07:18:49;;;;;;;;;;;11.10;99.90;;;;;;5070535;28;20001;-71
2022/04/19 07:26:45;;;;;;;;;;;11.60;99.90;;;;;;5085883;28;19931;-72
2022/04/19 07:29:12;;;;;;;;;;;11.70;99.90;;;;;;5083835;28;19924;-71
2022/04/19 07:31:39;;;;;;;;;;;11.90;99.90;;;;;;5088686;28;19924;-72
2022/04/19 07:34:07;;;;;;;;;;;12.00;99.90;;;;;;5082566;28;20475;-73
2022/04/19 07:36:35;;;;;;;;;;;12.20;99.90;;;;;;5086031;28;20008;-73
2022/04/19 07:39:03;;;;;;;;;;;12.40;99.90;;;;;;5077457;28;19974;-73
2022/04/19 07:41:30;;;;;;;;;;;12.60;99.90;;;;;;5093145;28;20317;-71
2022/04/19 07:43:56;;;;;;;;;;;12.90;99.90;;;;;;5093231;28;19958;-72
2022/04/19 07:46:23;;;;;;;;;;;13.10;99.90;;;;;;5068833;28;20314;-73
2022/04/19 07:48:51;;;;;;;;;;;13.30;99.90;;;;;;5082683;28;19932;-72
2022/04/19 07:51:19;;;;;;;;;;;13.50;99.90;;;;;;5097204;28;19924;-74
2022/04/19 07:53:46;;;;;;;;;;;13.60;99.90;;;;;;5081340;28;19929;-72
2022/04/19 07:56:13;;;;;;;;;;;13.80;99.90;;;;;;5085790;28;19966;-73
2022/04/19 07:58:39;;;;;;;;;;;14.00;99.90;;;;;;5089008;28;19977;-72
2022/04/19 08:01:06;;;;;;;;;;;14.20;99.90;;;;;;5087067;28;19927;-73
2022/04/19 08:03:33;;;;;;;;;;;14.30;99.90;;;;;;5086335;28;19973;-72
2022/04/19 08:05:59;;;;;;;;;;;14.50;99.90;;;;;;5081539;28;19937;-72
2022/04/19 08:08:27;;;;;;;;;;;14.70;99.90;;;;;;5068418;28;19936;-72
2022/04/19 08:10:54;;;;;;;;;;;14.90;99.90;;;;;;5086198;28;19928;-73
2022/04/19 08:13:20;;;;;;;;;;;15.20;99.80;;;;;;5094284;28;20010;-71
2022/04/19 08:15:47;;;;;;;;;;;15.40;99.50;;;;;;5069149;28;19970;-73
2022/04/19 08:18:15;;;;;;;;;;;15.50;98.20;;;;;;5070068;28;20484;-72
2022/04/19 08:20:42;;;;;;;;;;;15.70;97.80;;;;;;5078397;28;19925;-74
2022/04/19 08:23:09;;;;;;;;;;;16.00;97.30;;;;;;5099573;28;19939;-72
2022/04/19 08:25:37;;;;;;;;;;;16.10;96.60;;;;;;5069309;28;19925;-73
2022/04/19 08:28:03;;;;;;;;;;;16.20;97.10;;;;;;5088428;28;19947;-72
2022/04/19 08:30:30;;;;;;;;;;;16.30;97.50;;;;;;5092679;28;19928;-73
2022/04/19 08:32:57;;;;;;;;;;;16.50;96.80;;;;;;5102690;28;19999;-74
2022/04/19 08:35:23;;;;;;;;;;;16.60;96.20;;;;;;5076946;28;19990;-75
2022/04/19 08:37:50;;;;;;;;;;;16.80;95.60;;;;;;5092114;28;19936;-73
2022/04/19 08:40:17;;;;;;;;;;;16.90;95.20;;;;;;5085659;28;20375;-73
2022/04/19 08:42:45;;;;;;;;;;;17.00;95.00;;;;;;5081975;28;19973;-73
2022/04/19 08:45:13;;;;;;;;;;;17.20;94.50;;;;;;5083323;28;20525;-72
2022/04/19 08:47:42;;;;;;;;;;;17.30;93.80;;;;;;5080347;28;20000;-71
2022/04/19 08:50:10;;;;;;;;;;;17.40;92.40;;;;;;5075877;28;19932;-71
2022/04/19 08:52:37;;;;;;;;;;;17.30;92.50;;;;;;5081077;28;19989;-67
2022/04/19 08:57:50;;;;;;;;;;;17.40;93.00;;;;;;5091089;28;19989;-67
2022/04/19 09:00:22;;;;;;;;;;;17.70;91.90;;;;;;5086911;28;19936;-64
2022/04/19 09:02:48;;;;;;;;;;;17.80;91.30;;;;;;5087339;28;19933;-64
2022/04/19 09:05:16;;;;;;;;;;;18.00;92.00;;;;;;5084332;28;19944;-70
2022/04/19 09:07:43;;;;;;;;;;;18.30;92.20;;;;;;5075472;28;19931;-68
2022/04/19 09:10:14;;;;;;;;;;;18.60;91.60;;;;;;5080958;28;19924;-68
2022/04/19 09:12:55;;;;;;;;;;;18.80;90.50;;;;;;5081270;28;19934;-67
2022/04/19 09:15:23;;;;;;;;;;;19.00;89.70;;;;;;5084905;28;19977;-68
2022/04/19 09:17:50;;;;;;;;;;;19.10;90.10;;;;;;5083013;28;19924;-68
2022/04/19 09:20:18;;;;;;;;;;;19.20;90.10;;;;;;5073605;28;19975;-69
2022/04/19 09:22:45;;;;;;;;;;;19.40;90.00;;;;;;5093771;28;19924;-69
2022/04/19 09:25:15;;;;;;;;;;;19.70;89.00;;;;;;5090778;28;20031;-68
2022/04/19 09:27:42;;;;;;;;;;;20.00;88.40;;;;;;5078551;28;20036;-69
2022/04/19 09:30:19;;;;;;;;;;;20.30;85.90;;;;;;5087579;28;19999;-67
2022/04/19 09:33:16;;;;;;;;;;;20.40;84.80;;;;;;5086001;28;19968;-66
2022/04/19 09:35:44;;;;;;;;;;;20.50;83.30;;;;;;5020943;28;20348;-65
2022/04/19 09:38:11;;;;;;;;;;;20.60;82.50;;;;;;5059739;28;19985;-64
2022/04/19 09:40:39;;;;;;;;;;;20.80;83.40;;;;;;5079244;28;19953;-67
2022/04/19 09:43:10;;;;;;;;;;;21.00;83.60;;;;;;5075124;28;19932;-65
2022/04/19 09:45:51;;;;;;;;;;;21.30;79.10;;;;;;5076896;28;19928;-66
2022/04/19 09:48:18;;;;;;;;;;;21.30;79.90;;;;;;5067967;28;20318;-66
2022/04/19 09:50:50;;;;;;;;;;;21.40;79.60;;;;;;5081501;28;20066;-66
2022/04/19 09:53:17;;;;;;;;;;;21.60;78.30;;;;;;5084186;28;20028;-66
2022/04/19 09:55:46;;;;;;;;;;;21.70;78.10;;;;;;5081245;28;20344;-65
2022/04/19 09:58:14;;;;;;;;;;;21.80;78.40;;;;;;5077031;28;19924;-63
2022/04/19 10:00:41;;;;;;;;;;;21.90;76.90;;;;;;5071068;28;19946;-64
2022/04/19 10:08:51;;;;;;;;;;;22.40;74.80;;;;;;4982948;28;20454;-65
2022/04/19 10:11:19;;;;;;;;;;;22.60;74.60;;;;;;5054677;28;23137;-66
2022/04/19 10:13:45;;;;;;;;;;;22.40;73.20;;;;;;5075033;28;19929;-66
2022/04/19 10:16:13;;;;;;;;;;;22.50;74.00;;;;;;5073771;28;19977;-67
2022/04/19 10:18:39;;;;;;;;;;;22.50;72.50;;;;;;5077866;28;20326;-65
2022/04/19 10:21:09;;;;;;;;;;;22.70;71.40;;;;;;5075971;28;20313;-65
2022/04/19 10:23:36;;;;;;;;;;;22.80;71.90;;;;;;5079986;28;19928;-65
2022/04/19 10:26:12;;;;;;;;;;;22.80;72.00;;;;;;5077754;28;19941;-66
2022/04/19 10:28:39;;;;;;;;;;;22.90;71.00;;;;;;5075354;28;20341;-66
2022/04/19 10:31:06;;;;;;;;;;;23.00;71.20;;;;;;5074655;28;20019;-66
2022/04/19 10:33:47;;;;;;;;;;;23.00;69.60;;;;;;5081692;28;20035;-66
2022/04/19 10:36:17;;;;;;;;;;;23.00;68.90;;;;;;5073463;28;19946;-67
2022/04/19 10:38:44;;;;;;;;;;;23.00;68.20;;;;;;5078337;28;19948;-66
2022/04/19 10:41:11;;;;;;;;;;;23.00;70.00;;;;;;5077705;28;19968;-66
2022/04/19 10:43:37;;;;;;;;;;;23.20;68.60;;;;;;5077286;28;20320;-66
2022/04/19 10:46:17;;;;;;;;;;;23.40;68.60;;;;;;5074389;28;19966;-67
2022/04/19 10:48:58;;;;;;;;;;;23.60;69.30;;;;;;5074957;28;19948;-67
2022/04/19 10:51:29;;;;;;;;;;;23.80;68.40;;;;;;5076237;28;20025;-67
2022/04/19 10:53:56;;;;;;;;;;;23.90;67.60;;;;;;5078670;28;20385;-66
2022/04/19 10:56:22;;;;;;;;;;;24.00;66.80;;;;;;5071652;28;20016;-66
2022/04/19 10:58:49;;;;;;;;;;;24.10;66.20;;;;;;5075209;28;20022;-66
2022/04/19 11:01:28;;;;;;;;;;;24.20;63.30;;;;;;5080243;28;20041;-66
2022/04/19 11:03:56;;;;;;;;;;;24.20;64.50;;;;;;5073376;28;20003;-65
2022/04/19 11:06:31;;;;;;;;;;;24.30;64.30;;;;;;5077156;28;20472;-65
2022/04/19 11:09:08;;;;;;;;;;;24.40;65.20;;;;;;5081758;28;19967;-66
2022/04/19 11:11:50;;;;;;;;;;;24.60;63.40;;;;;;5077128;28;19968;-67
2022/04/19 11:14:44;;;;;;;;;;;24.60;62.00;;;;;;5072388;28;20308;-66
2022/04/19 11:17:18;;;;;;;;;;;24.80;65.10;;;;;;5072043;28;20647;-66
2022/04/19 11:19:51;;;;;;;;;;;25.30;63.80;;;;;;5079085;28;19954;-65
2022/04/19 11:22:29;;;;;;;;;;;25.80;62.50;;;;;;5072869;28;20395;-68
2022/04/19 11:24:59;;;;;;;;;;;26.20;62.40;;;;;;5071229;28;19960;-68
2022/04/19 11:27:43;;;;;;;;;;;26.70;59.70;;;;;;5083008;28;20023;-68
2022/04/19 11:30:12;;;;;;;;;;;26.90;60.40;;;;;;5046260;28;21767;-68
2022/04/19 11:32:39;;;;;;;;;;;27.30;58.30;;;;;;5090982;28;20180;-67
2022/04/19 11:35:06;;;;;;;;;;;27.80;58.30;;;;;;5081077;28;19932;-69
2022/04/19 11:37:34;;;;;;;;;;;28.20;57.60;;;;;;5083042;28;20412;-68
2022/04/19 11:48:17;;;;;;;;;;;31.10;52.30;;;;;;5080846;28;19942;-66
2022/04/19 11:50:43;;;;;;;;;;;31.60;51.10;;;;;;5084424;28;19986;-68
2022/04/19 11:53:16;;;;;;;;;;;32.30;49.80;;;;;;5075479;28;19977;-65
2022/04/19 11:55:50;;;;;;;;;;;32.80;49.80;;;;;;5084712;28;19953;-68
2022/04/19 11:58:17;;;;;;;;;;;33.20;45.90;;;;;;5073599;28;20359;-68
2022/04/19 12:00:43;;;;;;;;;;;34.00;46.00;;;;;;5079809;28;19932;-66
2022/04/19 12:03:24;;;;;;;;;;;34.50;44.20;;;;;;5074395;28;20327;-70
2022/04/19 12:05:52;;;;;;;;;;;34.80;42.80;;;;;;5078190;28;19947;-68
2022/04/19 12:08:31;;;;;;;;;;;35.20;41.60;;;;;;5080945;28;19931;-70
2022/04/19 12:10:59;;;;;;;;;;;35.20;39.60;;;;;;5083823;28;19928;-69
2022/04/19 12:13:25;;;;;;;;;;;34.80;37.90;;;;;;5080236;28;19928;-69
2022/04/19 12:15:52;;;;;;;;;;;34.00;38.40;;;;;;5086824;28;20035;-70
2022/04/19 12:18:29;;;;;;;;;;;34.40;40.40;;;;;;5088195;28;20016;-69
2022/04/19 12:20:56;;;;;;;;;;;34.50;40.10;;;;;;5090618;28;20015;-66
2022/04/19 12:23:23;;;;;;;;;;;35.10;39.00;;;;;;5086208;28;20386;-68
2022/04/19 12:26:01;;;;;;;;;;;35.70;38.40;;;;;;5080976;28;20050;-68
2022/04/19 12:28:38;;;;;;;;;;;36.50;37.60;;;;;;5087336;28;20017;-67
2022/04/19 12:31:04;;;;;;;;;;;36.50;37.90;;;;;;5081175;28;19970;-73
2022/04/19 12:33:31;;;;;;;;;;;36.70;37.90;;;;;;5087552;28;20033;-71
2022/04/19 12:35:58;;;;;;;;;;;36.80;36.00;;;;;;5085434;28;20013;-70
2022/04/19 12:38:29;;;;;;;;;;;36.70;35.20;;;;;;5083539;28;20012;-73
2022/04/19 12:40:55;;;;;;;;;;;37.00;37.00;;;;;;5080729;28;19943;-71
2022/04/19 12:43:41;;;;;;;;;;;37.50;36.30;;;;;;5085730;28;19936;-73
2022/04/19 12:46:08;;;;;;;;;;;38.00;36.90;;;;;;5083348;28;19975;-72
2022/04/19 12:48:34;;;;;;;;;;;38.10;35.50;;;;;;5084040;28;19978;-70
2022/04/19 12:51:02;;;;;;;;;;;38.20;35.20;;;;;;5085310;28;20016;-66
2022/04/19 12:53:28;;;;;;;;;;;38.20;33.20;;;;;;5085786;28;21906;-66
2022/04/19 12:58:59;;;;;;;;;;;37.90;34.90;;;;;;5076903;28;19943;-67
2022/04/19 13:01:25;;;;;;;;;;;37.90;34.90;;;;;;5083408;28;19979;-67
2022/04/19 13:03:52;;;;;;;;;;;37.60;35.20;;;;;;5076404;28;19937;-67
2022/04/19 13:14:33;;;;;;;;;;;38.40;34.20;;;;;;5083550;28;19980;-74
2022/04/19 13:16:59;;;;;;;;;;;38.70;34.10;;;;;;5081571;28;20024;-72
2022/04/19 13:19:26;;;;;;;;;;;39.20;32.90;;;;;;5075771;28;20027;-70
2022/04/19 13:21:52;;;;;;;;;;;39.30;33.20;;;;;;5078064;28;19970;-72
2022/04/19 13:24:19;;;;;;;;;;;39.50;32.60;;;;;;5080586;28;20009;-72
2022/04/19 13:26:45;;;;;;;;;;;39.00;33.80;;;;;;5081025;28;19959;-70
2022/04/19 13:29:12;;;;;;;;;;;38.60;32.40;;;;;;5076352;28;19959;-72
2022/04/19 13:31:40;;;;;;;;;;;38.40;32.90;;;;;;5080171;28;19971;-71
2022/04/19 13:34:07;;;;;;;;;;;38.20;33.20;;;;;;5070206;28;19961;-70
2022/04/19 13:36:33;;;;;;;;;;;38.50;33.80;;;;;;5066819;28;20023;-70
2022/04/19 13:39:00;;;;;;;;;;;38.80;32.80;;;;;;5079761;28;20006;-69
2022/04/19 13:41:27;;;;;;;;;;;39.10;32.90;;;;;;5074227;28;20040;-69
2022/04/19 13:43:53;;;;;;;;;;;39.40;32.60;;;;;;5078388;28;19948;-71
2022/04/19 13:46:20;;;;;;;;;;;40.00;30.70;;;;;;5084831;28;19969;-71
2022/04/19 13:48:47;;;;;;;;;;;40.00;31.10;;;;;;5068666;28;20047;-71
2022/04/19 13:51:14;;;;;;;;;;;39.80;31.60;;;;;;5063851;28;20420;-70
2022/04/19 13:53:40;;;;;;;;;;;39.70;31.80;;;;;;5076971;28;20103;-71
2022/04/19 13:56:07;;;;;;;;;;;39.60;32.20;;;;;;5079161;28;20351;-70
2022/04/19 13:58:34;;;;;;;;;;;39.10;32.20;;;;;;5073885;28;19958;-71
2022/04/19 14:01:02;;;;;;;;;;;39.00;32.10;;;;;;5073303;28;19995;-71
2022/04/19 14:03:28;;;;;;;;;;;38.90;32.40;;;;;;5081472;28;19998;-70
2022/04/19 14:05:58;;;;;;;;;;;39.00;32.60;;;;;;5077672;28;20031;-72
2022/04/19 14:08:25;;;;;;;;;;;38.80;32.50;;;;;;5079673;28;19947;-71
2022/04/19 14:10:51;;;;;;;;;;;38.90;32.50;;;;;;5064553;28;20028;-71
2022/04/19 14:13:18;;;;;;;;;;;38.60;32.30;;;;;;5066500;28;19978;-70
2022/04/19 14:15:44;;;;;;;;;;;38.40;32.60;;;;;;5072662;28;20314;-71
2022/04/19 14:18:11;;;;;;;;;;;38.10;33.50;;;;;;5069128;28;19961;-71
2022/04/19 14:20:37;;;;;;;;;;;38.00;33.90;;;;;;5083634;28;19958;-73
2022/04/19 14:23:05;;;;;;;;;;;37.70;34.40;;;;;;5074803;28;20102;-71
2022/04/19 14:25:31;;;;;;;;;;;38.00;34.10;;;;;;5072398;28;19964;-71
2022/04/19 14:27:58;;;;;;;;;;;38.20;33.60;;;;;;5064794;28;20357;-72
2022/04/19 14:33:19;;;;;;;;;;;37.50;34.00;;;;;;5078567;28;19951;-70
2022/04/19 14:35:46;;;;;;;;;;;37.20;34.40;;;;;;5063803;28;19955;-72
2022/04/19 14:38:15;;;;;;;;;;;37.10;34.80;;;;;;5078711;28;20058;-72
2022/04/19 14:40:42;;;;;;;;;;;37.30;35.70;;;;;;5088566;28;19977;-73
2022/04/19 14:43:09;;;;;;;;;;;37.20;35.00;;;;;;5083300;28;20448;-68
2022/04/19 14:45:36;;;;;;;;;;;37.40;34.30;;;;;;5084617;28;20027;-67
2022/04/19 14:48:02;;;;;;;;;;;37.10;34.90;;;;;;5086703;28;19996;-71
2022/04/19 14:50:31;;;;;;;;;;;37.00;34.40;;;;;;5085474;28;20016;-67
2022/04/19 14:52:57;;;;;;;;;;;37.10;34.40;;;;;;5084517;28;19958;-68
2022/04/19 14:55:25;;;;;;;;;;;36.80;34.60;;;;;;5080470;28;19957;-70
2022/04/19 14:57:51;;;;;;;;;;;36.20;34.60;;;;;;5072944;28;20425;-75
2022/04/19 15:00:18;;;;;;;;;;;36.20;35.10;;;;;;5082816;28;19974;-66
2022/04/19 15:02:44;;;;;;;;;;;36.40;35.10;;;;;;5073117;28;19978;-67
2022/04/19 15:05:11;;;;;;;;;;;36.20;35.00;;;;;;5075895;28;20180;-67
2022/04/19 15:07:37;;;;;;;;;;;36.30;34.90;;;;;;5071997;28;20000;-67
2022/04/19 15:10:06;;;;;;;;;;;35.90;35.30;;;;;;5080204;28;19951;-67
2022/04/19 15:12:34;;;;;;;;;;;35.70;35.20;;;;;;5091288;28;20049;-66
2022/04/19 15:15:00;;;;;;;;;;;35.50;35.40;;;;;;5073764;28;19947;-69
2022/04/19 15:17:27;;;;;;;;;;;35.30;35.60;;;;;;5071937;28;19950;-69